sensor_id;sensor_type;location;lat;lon;timestamp;pressure;altitude;pressure_sealevel;temperature;humidity
10470;BME280;5282;47.052;15.458;2023-11-19T00:00:32;98089.63;;;3.48;100.00
10470;BME280;5282;47.052;15.458;2023-11-19T00:02:59;98072.47;;;3.52;100.00
10470;BME280;5282;47.052;15.458;2023-11-19T00:05:27;98069.19;;;3.48;100.00
10470;BME280;5282;47.052;15.458;2023-11-19T00:07:55;98058.94;;;3.55;100.00
10470;BME280;5282;47.052;15.458;2023-11-19T00:10:21;98056.63;;;3.50;100.00
10470;BME280;5282;47.052;15.458;2023-11-19T00:12:49;98061.09;;;3.37;100.00
10470;BME280;5282;47.052;15.458;2023-11-19T00:15:17;98058.44;;;3.37;100.00
10470;BME280;5282;47.052;15.458;2023-11-19T00:17:47;98052.50;;;3.33;100.00
10470;BME280;5282;47.052;15.458;2023-11-19T00:20:15;98053.44;;;3.32;100.00
10470;BME280;5282;47.052;15.458;2023-11-19T00:22:43;98053.03;;;3.26;100.00
10470;BME280;5282;47.052;15.458;2023-11-19T00:25:11;98066.00;;;3.30;100.00
10470;BME280;5282;47.052;15.458;2023-11-19T00:27:38;98053.44;;;3.32;100.00
10470;BME280;5282;47.052;15.458;2023-11-19T00:30:06;98047.72;;;3.26;100.00
10470;BME280;5282;47.052;15.458;2023-11-19T00:32:34;98053.56;;;3.18;100.00
10470;BME280;5282;47.052;15.458;2023-11-19T00:35:04;98048.69;;;3.12;100.00
10470;BME280;5282;47.052;15.458;2023-11-19T00:37:32;98031.47;;;3.04;100.00
10470;BME280;5282;47.052;15.458;2023-11-19T00:39:59;98026.06;;;2.93;100.00
10470;BME280;5282;47.052;15.458;2023-11-19T00:42:26;98028.06;;;3.02;100.00
10470;BME280;5282;47.052;15.458;2023-11-19T00:44:53;98053.91;;;3.26;100.00
10470;BME280;5282;47.052;15.458;2023-11-19T00:47:21;98051.00;;;3.29;100.00
10470;BME280;5282;47.052;15.458;2023-11-19T00:49:48;98032.44;;;3.40;100.00
10470;BME280;5282;47.052;15.458;2023-11-19T00:52:16;98025.34;;;3.28;100.00
10470;BME280;5282;47.052;15.458;2023-11-19T00:54:44;98021.50;;;3.32;100.00
10470;BME280;5282;47.052;15.458;2023-11-19T00:57:11;98008.31;;;3.31;100.00
10470;BME280;5282;47.052;15.458;2023-11-19T00:59:38;98011.63;;;3.34;100.00
10470;BME280;5282;47.052;15.458;2023-11-19T01:02:04;98018.34;;;3.27;100.00
10470;BME280;5282;47.052;15.458;2023-11-19T01:04:33;98008.75;;;3.24;100.00
10470;BME280;5282;47.052;15.458;2023-11-19T01:07:01;98011.06;;;3.29;100.00
10470;BME280;5282;47.052;15.458;2023-11-19T01:09:31;98013.22;;;3.24;100.00
10470;BME280;5282;47.052;15.458;2023-11-19T01:12:00;98033.56;;;3.12;100.00
10470;BME280;5282;47.052;15.458;2023-11-19T01:14:27;98031.31;;;3.19;100.00
10470;BME280;5282;47.052;15.458;2023-11-19T01:16:54;98025.03;;;3.20;100.00
10470;BME280;5282;47.052;15.458;2023-11-19T01:19:22;98028.56;;;3.20;100.00
10470;BME280;5282;47.052;15.458;2023-11-19T01:21:50;98010.38;;;3.27;100.00
10470;BME280;5282;47.052;15.458;2023-11-19T01:24:17;98010.25;;;3.29;100.00
10470;BME280;5282;47.052;15.458;2023-11-19T01:26:45;97998.97;;;3.25;100.00
10470;BME280;5282;47.052;15.458;2023-11-19T01:29:13;97983.00;;;3.25;100.00
10470;BME280;5282;47.052;15.458;2023-11-19T01:31:40;97998.44;;;3.20;100.00
10470;BME280;5282;47.052;15.458;2023-11-19T01:34:07;97987.59;;;3.23;100.00
10470;BME280;5282;47.052;15.458;2023-11-19T01:36:34;97988.66;;;3.20;100.00
10470;BME280;5282;47.052;15.458;2023-11-19T01:39:01;97974.50;;;3.20;100.00
10470;BME280;5282;47.052;15.458;2023-11-19T01:41:29;97975.78;;;3.14;100.00
10470;BME280;5282;47.052;15.458;2023-11-19T01:44:01;97973.03;;;3.16;100.00
10470;BME280;5282;47.052;15.458;2023-11-19T01:46:29;97959.94;;;3.13;100.00
10470;BME280;5282;47.052;15.458;2023-11-19T01:48:59;97955.16;;;3.05;100.00
10470;BME280;5282;47.052;15.458;2023-11-19T01:51:27;97953.88;;;3.11;100.00
10470;BME280;5282;47.052;15.458;2023-11-19T01:53:54;97951.31;;;3.09;100.00
10470;BME280;5282;47.052;15.458;2023-11-19T01:56:22;97945.03;;;3.10;100.00
10470;BME280;5282;47.052;15.458;2023-11-19T01:58:51;97943.34;;;3.09;100.00
10470;BME280;5282;47.052;15.458;2023-11-19T02:01:21;97948.53;;;3.11;100.00
10470;BME280;5282;47.052;15.458;2023-11-19T02:03:56;97941.97;;;3.03;100.00
10470;BME280;5282;47.052;15.458;2023-11-19T02:06:28;97933.03;;;3.04;100.00
10470;BME280;5282;47.052;15.458;2023-11-19T02:08:58;97925.78;;;3.06;100.00
10470;BME280;5282;47.052;15.458;2023-11-19T02:11:29;97926.81;;;3.17;100.00
10470;BME280;5282;47.052;15.458;2023-11-19T02:14:00;97917.44;;;3.11;100.00
10470;BME280;5282;47.052;15.458;2023-11-19T02:16:30;97907.19;;;2.93;100.00
10470;BME280;5282;47.052;15.458;2023-11-19T02:18:57;97901.66;;;2.84;100.00
10470;BME280;5282;47.052;15.458;2023-11-19T02:21:24;97904.44;;;2.82;100.00
10470;BME280;5282;47.052;15.458;2023-11-19T02:23:51;97902.94;;;2.91;100.00
10470;BME280;5282;47.052;15.458;2023-11-19T02:26:28;97895.06;;;2.89;100.00
10470;BME280;5282;47.052;15.458;2023-11-19T02:28:57;97889.66;;;2.91;100.00
10470;BME280;5282;47.052;15.458;2023-11-19T02:31:24;97886.59;;;2.84;100.00
10470;BME280;5282;47.052;15.458;2023-11-19T02:33:53;97887.66;;;2.82;100.00
10470;BME280;5282;47.052;15.458;2023-11-19T02:36:20;97887.59;;;2.70;100.00
10470;BME280;5282;47.052;15.458;2023-11-19T02:38:47;97888.09;;;2.75;100.00
10470;BME280;5282;47.052;15.458;2023-11-19T02:41:15;97880.84;;;2.77;100.00
10470;BME280;5282;47.052;15.458;2023-11-19T02:43:42;97886.25;;;2.89;100.00
10470;BME280;5282;47.052;15.458;2023-11-19T02:46:10;97898.06;;;2.85;100.00
10470;BME280;5282;47.052;15.458;2023-11-19T02:48:37;97881.94;;;2.75;100.00
10470;BME280;5282;47.052;15.458;2023-11-19T02:51:05;97869.25;;;2.78;100.00
10470;BME280;5282;47.052;15.458;2023-11-19T02:53:35;97865.03;;;2.63;100.00
10470;BME280;5282;47.052;15.458;2023-11-19T02:56:03;97859.41;;;2.55;100.00
10470;BME280;5282;47.052;15.458;2023-11-19T02:58:42;97858.56;;;2.54;100.00
10470;BME280;5282;47.052;15.458;2023-11-19T03:01:11;97850.78;;;2.64;100.00
10470;BME280;5282;47.052;15.458;2023-11-19T03:03:50;97845.25;;;2.54;100.00
10470;BME280;5282;47.052;15.458;2023-11-19T03:06:20;97841.31;;;2.60;100.00
10470;BME280;5282;47.052;15.458;2023-11-19T03:08:48;97844.41;;;2.54;100.00
10470;BME280;5282;47.052;15.458;2023-11-19T03:11:15;97839.06;;;2.67;100.00
10470;BME280;5282;47.052;15.458;2023-11-19T03:14:01;97835.66;;;2.77;100.00
10470;BME280;5282;47.052;15.458;2023-11-19T03:16:32;97830.31;;;2.77;100.00
10470;BME280;5282;47.052;15.458;2023-11-19T03:18:59;97835.84;;;2.74;100.00
10470;BME280;5282;47.052;15.458;2023-11-19T03:21:28;97828.09;;;2.71;100.00
10470;BME280;5282;47.052;15.458;2023-11-19T03:23:57;97832.13;;;2.77;100.00
10470;BME280;5282;47.052;15.458;2023-11-19T03:26:26;97817.16;;;2.76;100.00
10470;BME280;5282;47.052;15.458;2023-11-19T03:28:53;97817.31;;;2.86;100.00
10470;BME280;5282;47.052;15.458;2023-11-19T03:31:22;97812.22;;;2.83;100.00
10470;BME280;5282;47.052;15.458;2023-11-19T03:33:52;97811.19;;;2.72;100.00
10470;BME280;5282;47.052;15.458;2023-11-19T03:36:18;97806.00;;;2.71;100.00
10470;BME280;5282;47.052;15.458;2023-11-19T03:38:45;97798.63;;;2.74;100.00
10470;BME280;5282;47.052;15.458;2023-11-19T03:41:12;97792.88;;;2.81;100.00
10470;BME280;5282;47.052;15.458;2023-11-19T03:43:40;97788.41;;;2.81;100.00
10470;BME280;5282;47.052;15.458;2023-11-19T03:46:16;97779.47;;;2.82;100.00
10470;BME280;5282;47.052;15.458;2023-11-19T03:48:43;97774.91;;;2.71;100.00
10470;BME280;5282;47.052;15.458;2023-11-19T03:51:12;97771.69;;;2.55;100.00
10470;BME280;5282;47.052;15.458;2023-11-19T03:53:42;97780.97;;;2.49;100.00
10470;BME280;5282;47.052;15.458;2023-11-19T03:56:09;97772.31;;;2.58;100.00
10470;BME280;5282;47.052;15.458;2023-11-19T03:58:37;97772.66;;;2.54;100.00
10470;BME280;5282;47.052;15.458;2023-11-19T04:01:04;97767.41;;;2.65;100.00
10470;BME280;5282;47.052;15.458;2023-11-19T04:03:32;97772.72;;;2.65;100.00
10470;BME280;5282;47.052;15.458;2023-11-19T04:05:58;97768.63;;;2.72;100.00
10470;BME280;5282;47.052;15.458;2023-11-19T04:08:27;97763.56;;;2.69;100.00
10470;BME280;5282;47.052;15.458;2023-11-19T04:10:54;97756.56;;;2.68;100.00
10470;BME280;5282;47.052;15.458;2023-11-19T04:13:21;97750.97;;;2.71;100.00
10470;BME280;5282;47.052;15.458;2023-11-19T04:15:49;97748.06;;;2.63;100.00
10470;BME280;5282;47.052;15.458;2023-11-19T04:18:16;97741.78;;;2.64;100.00
10470;BME280;5282;47.052;15.458;2023-11-19T04:20:43;97738.03;;;2.67;100.00
10470;BME280;5282;47.052;15.458;2023-11-19T04:23:10;97747.09;;;2.64;100.00
10470;BME280;5282;47.052;15.458;2023-11-19T04:25:38;97741.44;;;2.69;100.00
10470;BME280;5282;47.052;15.458;2023-11-19T04:28:05;97741.00;;;2.75;100.00
10470;BME280;5282;47.052;15.458;2023-11-19T04:30:31;97739.13;;;2.64;100.00
10470;BME280;5282;47.052;15.458;2023-11-19T04:32:58;97729.63;;;2.73;100.00
10470;BME280;5282;47.052;15.458;2023-11-19T04:35:25;97727.31;;;2.68;100.00
10470;BME280;5282;47.052;15.458;2023-11-19T04:37:52;97741.22;;;2.72;100.00
10470;BME280;5282;47.052;15.458;2023-11-19T04:40:19;97740.13;;;2.74;100.00
10470;BME280;5282;47.052;15.458;2023-11-19T04:42:49;97734.59;;;2.77;100.00
10470;BME280;5282;47.052;15.458;2023-11-19T04:45:16;97735.94;;;2.83;100.00
10470;BME280;5282;47.052;15.458;2023-11-19T04:47:43;97718.41;;;2.81;100.00
10470;BME280;5282;47.052;15.458;2023-11-19T04:50:10;97725.75;;;2.77;100.00
10470;BME280;5282;47.052;15.458;2023-11-19T04:52:37;97724.41;;;2.71;100.00
10470;BME280;5282;47.052;15.458;2023-11-19T04:55:06;97730.69;;;2.70;100.00
10470;BME280;5282;47.052;15.458;2023-11-19T04:57:33;97724.25;;;2.61;100.00
10470;BME280;5282;47.052;15.458;2023-11-19T05:00:02;97718.06;;;2.61;100.00
10470;BME280;5282;47.052;15.458;2023-11-19T05:02:30;97729.03;;;2.56;100.00
10470;BME280;5282;47.052;15.458;2023-11-19T05:04:57;97721.06;;;2.56;100.00
10470;BME280;5282;47.052;15.458;2023-11-19T05:07:24;97704.09;;;2.46;100.00
10470;BME280;5282;47.052;15.458;2023-11-19T05:09:52;97699.88;;;2.43;100.00
10470;BME280;5282;47.052;15.458;2023-11-19T05:12:19;97711.44;;;2.42;100.00
10470;BME280;5282;47.052;15.458;2023-11-19T05:14:45;97702.25;;;2.35;100.00
10470;BME280;5282;47.052;15.458;2023-11-19T05:17:17;97700.28;;;2.37;100.00
10470;BME280;5282;47.052;15.458;2023-11-19T05:19:44;97691.81;;;2.32;100.00
10470;BME280;5282;47.052;15.458;2023-11-19T05:22:11;97680.25;;;2.33;100.00
10470;BME280;5282;47.052;15.458;2023-11-19T05:24:38;97681.94;;;2.34;100.00
10470;BME280;5282;47.052;15.458;2023-11-19T05:27:06;97666.34;;;2.29;100.00
10470;BME280;5282;47.052;15.458;2023-11-19T05:29:33;97660.16;;;2.29;100.00
10470;BME280;5282;47.052;15.458;2023-11-19T05:32:00;97672.94;;;2.24;100.00
10470;BME280;5282;47.052;15.458;2023-11-19T05:34:28;97673.59;;;2.14;100.00
10470;BME280;5282;47.052;15.458;2023-11-19T05:36:56;97669.53;;;2.22;100.00
10470;BME280;5282;47.052;15.458;2023-11-19T05:39:23;97669.00;;;2.29;100.00
10470;BME280;5282;47.052;15.458;2023-11-19T05:41:50;97671.31;;;2.34;100.00
10470;BME280;5282;47.052;15.458;2023-11-19T05:44:17;97681.63;;;2.26;100.00
10470;BME280;5282;47.052;15.458;2023-11-19T05:46:44;97682.72;;;2.23;100.00
10470;BME280;5282;47.052;15.458;2023-11-19T05:49:12;97681.19;;;2.32;100.00
10470;BME280;5282;47.052;15.458;2023-11-19T05:51:40;97682.44;;;2.39;100.00
10470;BME280;5282;47.052;15.458;2023-11-19T05:54:08;97672.75;;;2.38;100.00
10470;BME280;5282;47.052;15.458;2023-11-19T05:56:35;97654.69;;;2.43;100.00
10470;BME280;5282;47.052;15.458;2023-11-19T05:59:02;97650.81;;;2.47;100.00
10470;BME280;5282;47.052;15.458;2023-11-19T06:01:34;97657.69;;;2.39;100.00
10470;BME280;5282;47.052;15.458;2023-11-19T06:04:01;97657.00;;;2.48;100.00
10470;BME280;5282;47.052;15.458;2023-11-19T06:06:28;97649.06;;;2.59;100.00
10470;BME280;5282;47.052;15.458;2023-11-19T06:08:56;97644.66;;;2.47;100.00
10470;BME280;5282;47.052;15.458;2023-11-19T06:11:23;97641.41;;;2.43;100.00
10470;BME280;5282;47.052;15.458;2023-11-19T06:13:52;97647.31;;;2.47;100.00
10470;BME280;5282;47.052;15.458;2023-11-19T06:16:19;97631.50;;;2.45;100.00
10470;BME280;5282;47.052;15.458;2023-11-19T06:18:46;97631.38;;;2.47;100.00
10470;BME280;5282;47.052;15.458;2023-11-19T06:21:13;97639.75;;;2.54;100.00
10470;BME280;5282;47.052;15.458;2023-11-19T06:23:40;97647.72;;;2.54;100.00
10470;BME280;5282;47.052;15.458;2023-11-19T06:26:09;97647.25;;;2.60;100.00
10470;BME280;5282;47.052;15.458;2023-11-19T06:28:36;97640.00;;;2.62;100.00
10470;BME280;5282;47.052;15.458;2023-11-19T06:31:03;97644.19;;;2.77;100.00
10470;BME280;5282;47.052;15.458;2023-11-19T06:33:30;97643.13;;;2.91;100.00
10470;BME280;5282;47.052;15.458;2023-11-19T06:35:59;97645.69;;;2.93;100.00
10470;BME280;5282;47.052;15.458;2023-11-19T06:38:26;97625.47;;;2.90;100.00
10470;BME280;5282;47.052;15.458;2023-11-19T06:40:52;97623.56;;;2.92;100.00
10470;BME280;5282;47.052;15.458;2023-11-19T06:43:21;97626.38;;;3.02;100.00
10470;BME280;5282;47.052;15.458;2023-11-19T06:45:48;97628.50;;;2.97;100.00
10470;BME280;5282;47.052;15.458;2023-11-19T06:48:15;97632.38;;;2.93;100.00
10470;BME280;5282;47.052;15.458;2023-11-19T06:50:42;97618.69;;;2.75;100.00
10470;BME280;5282;47.052;15.458;2023-11-19T06:53:09;97625.78;;;2.74;100.00
10470;BME280;5282;47.052;15.458;2023-11-19T06:55:37;97610.22;;;2.81;100.00
10470;BME280;5282;47.052;15.458;2023-11-19T06:58:05;97621.09;;;2.78;100.00
10470;BME280;5282;47.052;15.458;2023-11-19T07:00:33;97632.00;;;2.86;100.00
10470;BME280;5282;47.052;15.458;2023-11-19T07:03:01;97633.22;;;2.93;100.00
10470;BME280;5282;47.052;15.458;2023-11-19T07:05:28;97638.41;;;2.95;100.00
10470;BME280;5282;47.052;15.458;2023-11-19T07:07:55;97629.84;;;3.03;100.00
10470;BME280;5282;47.052;15.458;2023-11-19T07:10:22;97632.13;;;2.96;100.00
10470;BME280;5282;47.052;15.458;2023-11-19T07:12:49;97644.63;;;3.07;100.00
10470;BME280;5282;47.052;15.458;2023-11-19T07:15:16;97648.09;;;2.96;100.00
10470;BME280;5282;47.052;15.458;2023-11-19T07:17:45;97651.75;;;3.06;100.00
10470;BME280;5282;47.052;15.458;2023-11-19T07:20:13;97642.56;;;3.11;100.00
10470;BME280;5282;47.052;15.458;2023-11-19T07:22:43;97643.69;;;3.19;100.00
10470;BME280;5282;47.052;15.458;2023-11-19T07:25:11;97647.16;;;3.08;100.00
10470;BME280;5282;47.052;15.458;2023-11-19T07:27:39;97640.88;;;3.09;100.00
10470;BME280;5282;47.052;15.458;2023-11-19T07:30:06;97634.84;;;3.30;100.00
10470;BME280;5282;47.052;15.458;2023-11-19T07:32:33;97621.31;;;3.33;100.00
10470;BME280;5282;47.052;15.458;2023-11-19T07:35:02;97605.56;;;3.30;100.00
10470;BME280;5282;47.052;15.458;2023-11-19T07:37:29;97593.38;;;3.39;100.00
10470;BME280;5282;47.052;15.458;2023-11-19T07:39:56;97563.13;;;3.51;100.00
10470;BME280;5282;47.052;15.458;2023-11-19T07:42:23;97523.06;;;3.53;100.00
10470;BME280;5282;47.052;15.458;2023-11-19T07:44:50;97547.53;;;3.24;100.00
10470;BME280;5282;47.052;15.458;2023-11-19T07:47:17;97587.63;;;2.87;100.00
10470;BME280;5282;47.052;15.458;2023-11-19T07:49:44;97609.25;;;2.82;100.00
10470;BME280;5282;47.052;15.458;2023-11-19T07:52:13;97605.94;;;3.14;100.00
10470;BME280;5282;47.052;15.458;2023-11-19T07:54:40;97614.03;;;3.01;100.00
10470;BME280;5282;47.052;15.458;2023-11-19T07:57:07;97624.91;;;3.09;100.00
10470;BME280;5282;47.052;15.458;2023-11-19T07:59:34;97600.00;;;3.11;100.00
10470;BME280;5282;47.052;15.458;2023-11-19T08:02:02;97584.56;;;3.27;100.00
10470;BME280;5282;47.052;15.458;2023-11-19T08:04:30;97606.03;;;3.01;100.00
10470;BME280;5282;47.052;15.458;2023-11-19T08:06:57;97623.31;;;2.96;100.00
10470;BME280;5282;47.052;15.458;2023-11-19T08:09:25;97635.06;;;3.04;100.00
10470;BME280;5282;47.052;15.458;2023-11-19T08:11:53;97616.13;;;3.32;100.00
10470;BME280;5282;47.052;15.458;2023-11-19T08:14:21;97627.59;;;3.32;100.00
10470;BME280;5282;47.052;15.458;2023-11-19T08:16:49;97621.56;;;3.42;100.00
10470;BME280;5282;47.052;15.458;2023-11-19T08:19:16;97618.91;;;3.53;100.00
10470;BME280;5282;47.052;15.458;2023-11-19T08:21:43;97608.59;;;3.60;100.00
10470;BME280;5282;47.052;15.458;2023-11-19T08:24:10;97619.63;;;3.55;100.00
10470;BME280;5282;47.052;15.458;2023-11-19T08:26:38;97611.03;;;3.40;100.00
10470;BME280;5282;47.052;15.458;2023-11-19T08:29:05;97599.88;;;3.69;100.00
10470;BME280;5282;47.052;15.458;2023-11-19T08:31:32;97591.75;;;3.93;100.00
10470;BME280;5282;47.052;15.458;2023-11-19T08:33:59;97581.25;;;4.24;100.00
10470;BME280;5282;47.052;15.458;2023-11-19T08:36:26;97579.44;;;4.25;100.00
10470;BME280;5282;47.052;15.458;2023-11-19T08:38:53;97564.03;;;4.50;100.00
10470;BME280;5282;47.052;15.458;2023-11-19T08:41:21;97561.31;;;4.61;100.00
10470;BME280;5282;47.052;15.458;2023-11-19T08:43:51;97565.09;;;4.58;100.00
10470;BME280;5282;47.052;15.458;2023-11-19T08:46:18;97572.22;;;4.69;100.00
10470;BME280;5282;47.052;15.458;2023-11-19T08:48:45;97562.38;;;4.91;100.00
10470;BME280;5282;47.052;15.458;2023-11-19T08:51:13;97558.19;;;4.98;100.00
10470;BME280;5282;47.052;15.458;2023-11-19T08:53:40;97551.94;;;5.09;100.00
10470;BME280;5282;47.052;15.458;2023-11-19T08:56:07;97558.19;;;5.19;100.00
10470;BME280;5282;47.052;15.458;2023-11-19T08:58:34;97560.09;;;5.79;100.00
10470;BME280;5282;47.052;15.458;2023-11-19T09:01:03;97550.19;;;6.01;100.00
10470;BME280;5282;47.052;15.458;2023-11-19T09:03:31;97540.19;;;6.03;100.00
10470;BME280;5282;47.052;15.458;2023-11-19T09:06:00;97545.88;;;5.79;100.00
10470;BME280;5282;47.052;15.458;2023-11-19T09:08:27;97534.16;;;6.50;100.00
10470;BME280;5282;47.052;15.458;2023-11-19T09:10:54;97538.47;;;6.81;100.00
10470;BME280;5282;47.052;15.458;2023-11-19T09:13:21;97543.59;;;7.21;100.00
10470;BME280;5282;47.052;15.458;2023-11-19T09:15:48;97539.44;;;7.37;100.00
10470;BME280;5282;47.052;15.458;2023-11-19T09:18:16;97545.19;;;7.04;100.00
10470;BME280;5282;47.052;15.458;2023-11-19T09:20:44;97554.94;;;6.86;100.00
10470;BME280;5282;47.052;15.458;2023-11-19T09:23:11;97540.72;;;6.75;100.00
10470;BME280;5282;47.052;15.458;2023-11-19T09:25:38;97526.09;;;6.70;100.00
10470;BME280;5282;47.052;15.458;2023-11-19T09:28:05;97520.34;;;6.55;100.00
10470;BME280;5282;47.052;15.458;2023-11-19T09:30:31;97521.44;;;6.82;100.00
10470;BME280;5282;47.052;15.458;2023-11-19T09:32:59;97508.59;;;6.85;100.00
10470;BME280;5282;47.052;15.458;2023-11-19T09:35:28;97521.44;;;6.82;100.00
10470;BME280;5282;47.052;15.458;2023-11-19T09:37:55;97523.19;;;7.10;100.00
10470;BME280;5282;47.052;15.458;2023-11-19T09:40:23;97512.81;;;7.35;100.00
10470;BME280;5282;47.052;15.458;2023-11-19T09:42:50;97512.41;;;7.58;100.00
10470;BME280;5282;47.052;15.458;2023-11-19T09:45:17;97506.88;;;7.60;100.00
10470;BME280;5282;47.052;15.458;2023-11-19T09:47:47;97489.06;;;7.68;100.00
10470;BME280;5282;47.052;15.458;2023-11-19T09:50:17;97478.41;;;8.23;100.00
10470;BME280;5282;47.052;15.458;2023-11-19T09:52:46;97450.94;;;8.29;100.00
10470;BME280;5282;47.052;15.458;2023-11-19T09:55:13;97462.22;;;8.32;98.05
10470;BME280;5282;47.052;15.458;2023-11-19T09:57:41;97468.13;;;8.36;98.73
10470;BME280;5282;47.052;15.458;2023-11-19T10:00:10;97465.16;;;8.84;96.02
10470;BME280;5282;47.052;15.458;2023-11-19T10:02:39;97483.91;;;9.10;89.74
10470;BME280;5282;47.052;15.458;2023-11-19T10:05:07;97483.69;;;9.38;87.67
10470;BME280;5282;47.052;15.458;2023-11-19T10:07:34;97482.09;;;9.53;82.41
10470;BME280;5282;47.052;15.458;2023-11-19T10:10:04;97472.19;;;9.11;85.28
10470;BME280;5282;47.052;15.458;2023-11-19T10:12:33;97453.97;;;8.97;88.66
10470;BME280;5282;47.052;15.458;2023-11-19T10:15:00;97439.09;;;8.76;93.52
10470;BME280;5282;47.052;15.458;2023-11-19T10:17:28;97443.38;;;8.24;93.28
10470;BME280;5282;47.052;15.458;2023-11-19T10:19:56;97426.03;;;8.55;99.37
10470;BME280;5282;47.052;15.458;2023-11-19T10:22:23;97422.44;;;8.99;95.07
10470;BME280;5282;47.052;15.458;2023-11-19T10:24:52;97414.81;;;9.29;87.81
10470;BME280;5282;47.052;15.458;2023-11-19T10:27:23;97419.59;;;9.51;87.51
10470;BME280;5282;47.052;15.458;2023-11-19T10:29:50;97415.09;;;9.60;85.26
10470;BME280;5282;47.052;15.458;2023-11-19T10:32:17;97403.97;;;9.47;83.96
10470;BME280;5282;47.052;15.458;2023-11-19T10:34:44;97398.06;;;9.35;85.01
10470;BME280;5282;47.052;15.458;2023-11-19T10:37:27;97395.38;;;9.35;86.54
10470;BME280;5282;47.052;15.458;2023-11-19T10:39:55;97392.91;;;9.50;88.34
10470;BME280;5282;47.052;15.458;2023-11-19T10:42:24;97383.84;;;9.59;83.60
10470;BME280;5282;47.052;15.458;2023-11-19T10:44:51;97381.81;;;9.53;79.44
10470;BME280;5282;47.052;15.458;2023-11-19T10:47:19;97369.94;;;9.72;81.67
10470;BME280;5282;47.052;15.458;2023-11-19T10:49:46;97369.25;;;9.70;78.61
10470;BME280;5282;47.052;15.458;2023-11-19T10:52:17;97373.63;;;9.96;79.41
10470;BME280;5282;47.052;15.458;2023-11-19T10:54:49;97360.84;;;10.14;78.63
10470;BME280;5282;47.052;15.458;2023-11-19T10:57:20;97374.25;;;9.56;79.00
10470;BME280;5282;47.052;15.458;2023-11-19T10:59:49;97377.22;;;9.29;80.36
10470;BME280;5282;47.052;15.458;2023-11-19T11:02:21;97365.84;;;9.43;82.43
10470;BME280;5282;47.052;15.458;2023-11-19T11:04:51;97371.44;;;9.75;80.90
10470;BME280;5282;47.052;15.458;2023-11-19T11:07:21;97365.41;;;9.89;83.35
10470;BME280;5282;47.052;15.458;2023-11-19T11:09:51;97362.84;;;9.96;79.51
10470;BME280;5282;47.052;15.458;2023-11-19T11:12:22;97359.34;;;10.03;77.76
10470;BME280;5282;47.052;15.458;2023-11-19T11:14:52;97356.31;;;9.65;80.05
10470;BME280;5282;47.052;15.458;2023-11-19T11:17:24;97354.28;;;9.67;77.99
10470;BME280;5282;47.052;15.458;2023-11-19T11:19:54;97372.69;;;9.29;86.72
10470;BME280;5282;47.052;15.458;2023-11-19T11:22:22;97376.13;;;9.05;100.00
10470;BME280;5282;47.052;15.458;2023-11-19T11:25:02;97377.53;;;8.83;94.78
10470;BME280;5282;47.052;15.458;2023-11-19T11:30:39;97350.75;;;9.59;89.13
10470;BME280;5282;47.052;15.458;2023-11-19T11:33:20;97350.41;;;9.53;88.84
10470;BME280;5282;47.052;15.458;2023-11-19T11:35:58;97340.50;;;9.62;81.31
10470;BME280;5282;47.052;15.458;2023-11-19T11:38:35;97330.22;;;9.49;83.98
10470;BME280;5282;47.052;15.458;2023-11-19T11:41:17;97331.25;;;9.73;82.78
10470;BME280;5282;47.052;15.458;2023-11-19T11:43:46;97324.47;;;9.27;86.28
10470;BME280;5282;47.052;15.458;2023-11-19T11:46:56;97316.13;;;9.64;86.25
10470;BME280;5282;47.052;15.458;2023-11-19T11:49:27;97316.16;;;10.05;84.18
10470;BME280;5282;47.052;15.458;2023-11-19T11:51:59;97298.19;;;9.89;81.38
10470;BME280;5282;47.052;15.458;2023-11-19T11:54:26;97297.84;;;9.76;81.10
10470;BME280;5282;47.052;15.458;2023-11-19T11:57:17;97305.56;;;9.70;83.29
10470;BME280;5282;47.052;15.458;2023-11-19T11:59:47;97303.19;;;9.67;86.21
10470;BME280;5282;47.052;15.458;2023-11-19T12:02:17;97295.47;;;9.81;85.04
10470;BME280;5282;47.052;15.458;2023-11-19T12:04:48;97292.28;;;10.02;83.35
10470;BME280;5282;47.052;15.458;2023-11-19T12:07:16;97290.88;;;10.31;78.21
10470;BME280;5282;47.052;15.458;2023-11-19T12:09:47;97287.16;;;10.32;76.82
10470;BME280;5282;47.052;15.458;2023-11-19T12:12:19;97285.19;;;10.26;78.21
10470;BME280;5282;47.052;15.458;2023-11-19T12:15:00;97282.47;;;10.34;77.81
10470;BME280;5282;47.052;15.458;2023-11-19T12:17:47;97273.28;;;9.95;79.28
10470;BME280;5282;47.052;15.458;2023-11-19T12:20:18;97274.38;;;10.34;81.96
10470;BME280;5282;47.052;15.458;2023-11-19T12:22:46;97276.25;;;10.42;78.55
10470;BME280;5282;47.052;15.458;2023-11-19T12:25:15;97265.97;;;10.45;79.17
10470;BME280;5282;47.052;15.458;2023-11-19T12:27:45;97262.59;;;10.43;76.84
10470;BME280;5282;47.052;15.458;2023-11-19T12:30:11;97270.72;;;10.27;75.91
10470;BME280;5282;47.052;15.458;2023-11-19T12:32:40;97265.63;;;10.48;78.55
10470;BME280;5282;47.052;15.458;2023-11-19T12:35:09;97263.28;;;10.45;79.18
10470;BME280;5282;47.052;15.458;2023-11-19T12:37:40;97263.75;;;10.57;78.34
10470;BME280;5282;47.052;15.458;2023-11-19T12:40:14;97265.28;;;10.52;76.12
10470;BME280;5282;47.052;15.458;2023-11-19T12:42:42;97266.81;;;10.46;76.16
10470;BME280;5282;47.052;15.458;2023-11-19T12:45:09;97268.78;;;10.60;76.88
10470;BME280;5282;47.052;15.458;2023-11-19T12:47:38;97262.84;;;10.73;77.31
10470;BME280;5282;47.052;15.458;2023-11-19T12:50:06;97267.84;;;10.76;74.89
10470;BME280;5282;47.052;15.458;2023-11-19T12:52:36;97269.25;;;10.72;73.85
10470;BME280;5282;47.052;15.458;2023-11-19T12:55:03;97259.16;;;10.74;75.44
10470;BME280;5282;47.052;15.458;2023-11-19T12:57:37;97252.34;;;10.87;76.34
10470;BME280;5282;47.052;15.458;2023-11-19T13:00:05;97253.09;;;11.04;75.06
10470;BME280;5282;47.052;15.458;2023-11-19T13:02:45;97252.38;;;11.10;73.27
10470;BME280;5282;47.052;15.458;2023-11-19T13:05:23;97268.31;;;11.20;73.80
10470;BME280;5282;47.052;15.458;2023-11-19T13:07:58;97251.75;;;11.31;70.90
10470;BME280;5282;47.052;15.458;2023-11-19T13:10:25;97261.84;;;11.29;70.43
10470;BME280;5282;47.052;15.458;2023-11-19T13:13:05;97262.53;;;11.31;68.89